createdAt,value
2017-03-06T00:00:40.783Z,87.96
2017-03-06T00:01:41.306Z,87.45
2017-03-06T00:02:41.842Z,87.69
2017-03-06T00:03:42.376Z,87.26
2017-03-06T00:04:42.909Z,87.53
2017-03-06T00:05:43.463Z,87.05
2017-03-06T00:06:43.975Z,87.40
2017-03-06T00:07:44.507Z,87.08
2017-03-06T00:08:45.042Z,87.82
2017-03-06T00:09:45.577Z,87.61
2017-03-06T00:10:46.108Z,87.51
2017-03-06T00:11:46.640Z,87.93
2017-03-06T00:12:47.172Z,87.67
2017-03-06T00:13:47.703Z,87.61
2017-03-06T00:14:48.240Z,88.09
2017-03-06T00:15:48.767Z,87.67
2017-03-06T00:16:49.296Z,88.01
2017-03-06T00:17:49.830Z,87.90
2017-03-06T00:18:50.364Z,88.09
2017-03-06T00:19:50.895Z,88.04
2017-03-06T00:20:51.430Z,87.98
2017-03-06T00:21:51.967Z,88.20
2017-03-06T00:22:52.490Z,88.28
2017-03-06T00:23:53.026Z,88.33
2017-03-06T00:24:53.557Z,88.23
2017-03-06T00:25:54.105Z,88.46
2017-03-06T00:26:54.624Z,88.39
2017-03-06T00:27:55.156Z,88.50
2017-03-06T00:28:55.690Z,88.39
2017-03-06T00:29:56.216Z,88.68
2017-03-06T00:30:56.746Z,88.46
2017-03-06T00:31:57.285Z,88.36
2017-03-06T00:32:57.817Z,88.44
2017-03-06T00:33:58.348Z,88.62
2017-03-06T00:34:58.878Z,88.79
2017-03-06T00:35:59.417Z,88.87
2017-03-06T00:36:59.939Z,89.14
2017-03-06T00:38:00.467Z,88.89
2017-03-06T00:39:00.999Z,88.92
2017-03-06T00:40:01.533Z,88.65
2017-03-06T00:41:02.068Z,88.81
2017-03-06T00:42:02.600Z,88.84
2017-03-06T00:43:03.139Z,88.95
2017-03-06T00:44:03.667Z,89.03
2017-03-06T00:45:04.354Z,88.73
2017-03-06T00:46:04.740Z,89.06
2017-03-06T00:47:05.275Z,89.08
2017-03-06T00:48:05.801Z,89.37
2017-03-06T00:49:06.340Z,89.32
2017-03-06T00:50:06.864Z,89.16
2017-03-06T00:51:07.409Z,89.37
2017-03-06T00:52:07.939Z,89.45
2017-03-06T00:53:08.611Z,89.70
2017-03-06T00:54:09.000Z,89.75
2017-03-06T00:55:09.526Z,89.78
2017-03-06T00:56:10.208Z,89.64
2017-03-06T00:57:10.601Z,89.54
2017-03-06T00:58:11.122Z,89.62
2017-03-06T00:59:11.659Z,89.45
2017-03-06T01:00:12.191Z,89.67
2017-03-06T01:01:12.721Z,89.67
2017-03-06T01:02:13.255Z,89.80
2017-03-06T01:03:13.787Z,89.62
2017-03-06T01:04:14.319Z,89.80
2017-03-06T01:05:14.849Z,89.70
2017-03-06T01:06:15.384Z,89.88
2017-03-06T01:07:16.064Z,89.97
2017-03-06T01:08:16.448Z,90.09
2017-03-06T01:09:16.983Z,90.05
2017-03-06T01:10:17.524Z,89.91
2017-03-06T01:11:18.051Z,90.13
2017-03-06T01:12:18.728Z,90.23
2017-03-06T01:13:19.113Z,90.23
2017-03-06T01:14:19.644Z,90.31
2017-03-06T01:15:20.178Z,90.36
2017-03-06T01:16:20.717Z,90.58
2017-03-06T01:17:21.245Z,90.34
2017-03-06T01:18:21.773Z,90.61
2017-03-06T01:19:22.309Z,90.55
2017-03-06T01:20:22.849Z,90.15
2017-03-06T01:21:23.374Z,90.13
2017-03-06T01:22:23.903Z,90.20
2017-03-06T01:23:24.447Z,90.31
2017-03-06T01:24:24.977Z,90.55
2017-03-06T01:25:25.529Z,90.31
2017-03-06T01:26:26.199Z,90.26
2017-03-06T01:27:26.586Z,90.36
2017-03-06T01:28:27.116Z,89.88
2017-03-06T01:29:27.646Z,90.18
2017-03-06T01:30:28.182Z,90.36
2017-03-06T01:31:28.711Z,90.20
2017-03-06T01:32:29.244Z,90.02
2017-03-06T01:33:29.777Z,90.34
2017-03-06T01:34:30.302Z,90.42
2017-03-06T01:35:30.840Z,90.63
2017-03-06T01:36:31.371Z,90.42
2017-03-06T01:37:31.899Z,90.31
2017-03-06T01:38:32.433Z,90.58
2017-03-06T01:39:32.969Z,90.74
2017-03-06T01:40:33.649Z,90.39
2017-03-06T01:41:34.033Z,90.58
2017-03-06T01:42:34.563Z,90.47
2017-03-06T01:43:35.098Z,90.63
2017-03-06T01:44:35.642Z,90.80
2017-03-06T01:45:36.167Z,91.01
2017-03-06T01:46:36.699Z,91.03
2017-03-06T01:47:37.229Z,90.96
2017-03-06T01:48:37.763Z,91.11
2017-03-06T01:49:38.312Z,90.88
2017-03-06T01:50:38.829Z,90.63
2017-03-06T01:51:39.364Z,90.98
2017-03-06T01:52:39.893Z,91.38
2017-03-06T01:53:40.428Z,91.55
2017-03-06T01:54:40.954Z,92.11
2017-03-06T01:55:41.490Z,91.92
2017-03-06T01:56:42.027Z,91.95
2017-03-06T01:57:42.556Z,91.95
2017-03-06T01:58:43.088Z,91.92
2017-03-06T01:59:43.620Z,92.30
2017-03-06T02:00:44.156Z,92.70
2017-03-06T02:01:44.686Z,92.99
2017-03-06T02:02:45.217Z,92.99
2017-03-06T02:03:45.757Z,92.86
2017-03-06T02:04:46.297Z,92.78
2017-03-06T02:05:46.831Z,92.73
2017-03-06T02:06:47.513Z,92.65
2017-03-06T02:07:47.899Z,92.73
2017-03-06T02:08:48.426Z,92.51
2017-03-06T02:09:48.961Z,92.57
2017-03-06T02:10:49.644Z,92.57
2017-03-06T02:11:50.024Z,92.81
2017-03-06T02:12:50.556Z,92.78
2017-03-06T02:13:51.091Z,92.73
2017-03-06T02:14:51.622Z,92.57
2017-03-06T02:15:52.152Z,92.46
2017-03-06T02:16:52.677Z,92.40
2017-03-06T02:17:53.214Z,92.11
2017-03-06T02:18:53.743Z,92.32
2017-03-06T02:19:54.575Z,92.59
2017-03-06T02:20:54.804Z,92.40
2017-03-06T02:21:55.340Z,92.51
2017-03-06T02:22:55.868Z,92.46
2017-03-06T02:23:56.402Z,92.78
2017-03-06T02:24:56.932Z,92.65
2017-03-06T02:25:57.471Z,93.45
2017-03-06T02:26:57.999Z,93.62
2017-03-06T02:27:58.533Z,93.51
2017-03-06T02:28:59.068Z,93.26
2017-03-06T02:29:59.595Z,93.08
2017-03-06T02:31:00.129Z,93.08
2017-03-06T02:32:00.663Z,92.97
2017-03-06T02:33:01.192Z,92.99
2017-03-06T02:34:01.726Z,93.13
2017-03-06T02:35:02.253Z,93.59
2017-03-06T02:36:02.784Z,93.81
2017-03-06T02:37:03.320Z,93.75
2017-03-06T02:38:03.852Z,93.67
2017-03-06T02:39:04.384Z,94.04
2017-03-06T02:40:04.918Z,94.26
2017-03-06T02:41:05.452Z,94.40
2017-03-06T02:42:05.979Z,94.50
2017-03-06T02:43:06.507Z,94.53
2017-03-06T02:44:07.046Z,94.23
2017-03-06T02:45:07.578Z,93.62
2017-03-06T02:46:08.119Z,93.37
2017-03-06T02:47:08.664Z,93.37
2017-03-06T02:48:09.191Z,93.45
2017-03-06T02:49:09.727Z,92.46
2017-03-06T02:50:10.266Z,92.05
2017-03-06T02:51:10.791Z,92.89
2017-03-06T02:52:11.324Z,92.35
2017-03-06T02:53:11.864Z,91.49
2017-03-06T02:54:12.384Z,90.93
2017-03-06T02:55:12.918Z,91.09
2017-03-06T02:56:13.455Z,89.99
2017-03-06T02:57:14.131Z,90.09
2017-03-06T02:58:14.515Z,90.31
2017-03-06T02:59:15.041Z,89.40
2017-03-06T03:00:15.576Z,89.16
2017-03-06T03:01:16.107Z,89.62
2017-03-06T03:02:16.640Z,90.26
2017-03-06T03:03:17.171Z,89.64
2017-03-06T03:04:17.706Z,90.61
2017-03-06T03:05:18.236Z,89.64
2017-03-06T03:06:18.771Z,89.99
2017-03-06T03:07:19.605Z,89.91
2017-03-06T03:08:19.835Z,90.39
2017-03-06T03:09:20.369Z,90.77
2017-03-06T03:10:20.902Z,89.80
2017-03-06T03:11:21.428Z,89.78
2017-03-06T03:12:21.971Z,89.72
2017-03-06T03:13:22.498Z,88.09
2017-03-06T03:14:23.038Z,88.50
2017-03-06T03:15:23.556Z,88.41
2017-03-06T03:16:24.091Z,89.48
2017-03-06T03:17:24.620Z,90.36
2017-03-06T03:18:25.157Z,90.45
2017-03-06T03:19:25.682Z,90.39
2017-03-06T03:20:26.221Z,90.47
2017-03-06T03:21:26.738Z,90.66
2017-03-06T03:22:27.278Z,91.11
2017-03-06T03:23:27.805Z,91.30
2017-03-06T03:24:28.339Z,91.73
2017-03-06T03:25:28.883Z,91.79
2017-03-06T03:26:29.409Z,91.92
2017-03-06T03:27:29.948Z,92.05
2017-03-06T03:28:30.486Z,92.76
2017-03-06T03:29:31.017Z,93.16
2017-03-06T03:30:31.556Z,93.40
2017-03-06T03:31:32.095Z,93.24
2017-03-06T03:32:32.620Z,93.05
2017-03-06T03:33:33.153Z,92.97
2017-03-06T03:34:33.684Z,93.02
2017-03-06T03:35:34.214Z,93.26
2017-03-06T03:36:34.748Z,93.56
2017-03-06T03:37:35.281Z,93.26
2017-03-06T03:38:35.813Z,93.32
2017-03-06T03:39:36.355Z,93.62
2017-03-06T03:40:36.881Z,93.70
2017-03-06T03:41:37.407Z,93.64
2017-03-06T03:42:37.941Z,93.83
2017-03-06T03:43:38.474Z,93.96
2017-03-06T03:44:39.003Z,93.99
2017-03-06T03:45:39.549Z,94.04
2017-03-06T03:46:40.073Z,94.02
2017-03-06T03:47:40.602Z,93.67
2017-03-06T03:48:41.136Z,94.02
2017-03-06T03:49:41.667Z,93.94
2017-03-06T03:50:42.206Z,93.48
2017-03-06T03:51:42.735Z,93.70
2017-03-06T03:52:43.414Z,93.85
2017-03-06T03:53:43.952Z,93.75
2017-03-06T03:54:44.332Z,93.91
2017-03-06T03:55:44.865Z,93.43
2017-03-06T03:56:45.399Z,93.48
2017-03-06T03:57:45.926Z,93.70
2017-03-06T03:58:47.056Z,94.04
2017-03-06T03:59:46.985Z,94.34
2017-03-06T04:00:47.522Z,94.56
2017-03-06T04:01:48.048Z,94.83
2017-03-06T04:02:48.584Z,94.99
2017-03-06T04:03:49.110Z,94.77
2017-03-06T04:04:49.652Z,94.88
2017-03-06T04:05:50.179Z,94.88
2017-03-06T04:06:50.717Z,95.10
2017-03-06T04:07:51.250Z,95.04
2017-03-06T04:08:51.789Z,95.23
2017-03-06T04:09:52.335Z,95.10
2017-03-06T04:10:52.862Z,95.28
2017-03-06T04:11:53.544Z,95.45
2017-03-06T04:12:53.929Z,95.61
2017-03-06T04:13:54.455Z,95.72
2017-03-06T04:14:54.987Z,95.80
2017-03-06T04:15:55.516Z,95.96
2017-03-06T04:16:56.051Z,95.85
2017-03-06T04:17:56.592Z,95.85
2017-03-06T04:18:57.116Z,95.88
2017-03-06T04:19:57.645Z,95.77
2017-03-06T04:20:58.193Z,95.83
2017-03-06T04:21:58.713Z,95.91
2017-03-06T04:22:59.249Z,95.80
2017-03-06T04:23:59.785Z,95.69
2017-03-06T04:25:00.313Z,95.69
2017-03-06T04:26:00.845Z,95.56
2017-03-06T04:27:01.377Z,95.64
2017-03-06T04:28:01.908Z,95.80
2017-03-06T04:29:02.439Z,95.85
2017-03-06T04:30:02.970Z,95.91
2017-03-06T04:31:03.502Z,95.98
2017-03-06T04:32:04.033Z,95.88
2017-03-06T04:33:04.569Z,95.98
2017-03-06T04:34:05.098Z,95.98
2017-03-06T04:35:05.634Z,96.09
2017-03-06T04:36:06.161Z,96.13
2017-03-06T04:37:06.698Z,96.23
2017-03-06T04:38:07.229Z,96.26
2017-03-06T04:39:07.761Z,96.20
2017-03-06T04:40:08.441Z,96.23
2017-03-06T04:41:08.819Z,96.34
2017-03-06T04:42:09.387Z,96.42
2017-03-06T04:43:09.885Z,96.45
2017-03-06T04:44:10.417Z,96.53
2017-03-06T04:45:10.956Z,96.47
2017-03-06T04:46:11.491Z,96.50
2017-03-06T04:47:12.015Z,96.47
2017-03-06T04:48:12.547Z,96.45
2017-03-06T04:49:13.088Z,96.42
2017-03-06T04:50:13.620Z,96.47
2017-03-06T04:51:14.156Z,96.45
2017-03-06T04:52:14.686Z,96.47
2017-03-06T04:53:15.220Z,96.45
2017-03-06T04:54:15.902Z,96.31
2017-03-06T04:55:16.291Z,96.23
2017-03-06T04:56:16.815Z,96.28
2017-03-06T04:57:17.352Z,96.34
2017-03-06T04:58:17.887Z,96.20
2017-03-06T04:59:18.422Z,96.17
2017-03-06T05:00:18.953Z,96.15
2017-03-06T05:01:19.485Z,96.17
2017-03-06T05:02:20.015Z,96.20
2017-03-06T05:03:20.699Z,96.23
2017-03-06T05:04:21.087Z,96.17
2017-03-06T05:05:21.620Z,96.04
2017-03-06T05:06:22.145Z,96.28
2017-03-06T05:07:22.680Z,96.34
2017-03-06T05:08:23.211Z,96.42
2017-03-06T05:09:23.746Z,96.45
2017-03-06T05:10:24.274Z,96.45
2017-03-06T05:11:24.808Z,96.36
2017-03-06T05:12:25.341Z,96.42
2017-03-06T05:13:25.876Z,96.36
2017-03-06T05:14:26.430Z,96.09
2017-03-06T05:15:26.942Z,95.88
2017-03-06T05:16:27.469Z,95.83
2017-03-06T05:17:28.004Z,95.85
2017-03-06T05:18:28.533Z,95.75
2017-03-06T05:19:29.068Z,95.88
2017-03-06T05:20:29.601Z,95.75
2017-03-06T05:21:30.135Z,95.85
2017-03-06T05:22:30.675Z,95.91
2017-03-06T05:23:31.203Z,95.53
2017-03-06T05:24:31.744Z,95.47
2017-03-06T05:25:32.415Z,95.56
2017-03-06T05:26:32.797Z,95.64
2017-03-06T05:27:33.333Z,95.58
2017-03-06T05:28:33.868Z,95.66
2017-03-06T05:29:34.562Z,95.72
2017-03-06T05:30:34.939Z,95.94
2017-03-06T05:31:35.477Z,95.98
2017-03-06T05:32:36.009Z,96.09
2017-03-06T05:33:36.542Z,96.07
2017-03-06T05:34:37.078Z,95.94
2017-03-06T05:35:37.611Z,95.94
2017-03-06T05:36:38.292Z,95.96
2017-03-06T05:37:38.672Z,96.13
2017-03-06T05:38:39.213Z,96.13
2017-03-06T05:39:39.740Z,95.91
2017-03-06T05:40:40.270Z,95.80
2017-03-06T05:41:40.802Z,95.66
2017-03-06T05:42:41.334Z,95.50
2017-03-06T05:43:41.873Z,95.45
2017-03-06T05:44:42.399Z,95.34
2017-03-06T05:45:42.946Z,95.45
2017-03-06T05:46:43.474Z,95.53
2017-03-06T05:47:44.001Z,95.47
2017-03-06T05:48:44.535Z,95.37
2017-03-06T05:49:45.068Z,95.42
2017-03-06T05:50:45.613Z,95.45
2017-03-06T05:51:46.129Z,95.34
2017-03-06T05:52:46.666Z,95.12
2017-03-06T05:53:47.194Z,94.67
2017-03-06T05:54:47.734Z,94.48
2017-03-06T05:55:48.258Z,94.31
2017-03-06T05:56:48.802Z,94.29
2017-03-06T05:57:49.324Z,94.21
2017-03-06T05:58:49.852Z,94.15
2017-03-06T05:59:50.387Z,93.89
2017-03-06T06:00:50.919Z,93.70
2017-03-06T06:01:51.448Z,93.62
2017-03-06T06:02:51.979Z,93.54
2017-03-06T06:03:52.517Z,92.91
2017-03-06T06:04:53.047Z,92.95
2017-03-06T06:05:53.595Z,93.08
2017-03-06T06:06:54.264Z,93.10
2017-03-06T06:07:54.649Z,93.10
2017-03-06T06:08:55.185Z,93.10
2017-03-06T06:09:55.712Z,93.13
2017-03-06T06:10:56.264Z,93.48
2017-03-06T06:11:56.933Z,93.75
2017-03-06T06:12:57.323Z,93.67
2017-03-06T06:13:57.857Z,93.89
2017-03-06T06:14:58.391Z,94.07
2017-03-06T06:15:58.932Z,94.07
2017-03-06T06:16:59.459Z,94.26
2017-03-06T06:17:59.989Z,94.40
2017-03-06T06:19:00.529Z,94.18
2017-03-06T06:20:01.075Z,94.18
2017-03-06T06:21:01.612Z,94.23
2017-03-06T06:22:02.142Z,94.15
2017-03-06T06:23:02.674Z,94.18
2017-03-06T06:24:03.205Z,94.23
2017-03-06T06:25:03.734Z,94.37
2017-03-06T06:26:04.272Z,94.48
2017-03-06T06:27:04.795Z,94.45
2017-03-06T06:28:05.331Z,94.31
2017-03-06T06:29:05.856Z,94.26
2017-03-06T06:30:06.398Z,93.94
2017-03-06T06:31:06.923Z,93.89
2017-03-06T06:32:07.462Z,93.94
2017-03-06T06:33:07.990Z,94.04
2017-03-06T06:34:08.523Z,93.94
2017-03-06T06:35:09.054Z,93.89
2017-03-06T06:36:09.590Z,93.48
2017-03-06T06:37:10.120Z,93.51
2017-03-06T06:38:10.655Z,93.59
2017-03-06T06:39:11.190Z,93.62
2017-03-06T06:40:11.719Z,93.70
2017-03-06T06:41:12.249Z,93.64
2017-03-06T06:42:12.780Z,93.70
2017-03-06T06:43:13.308Z,93.62
2017-03-06T06:44:13.847Z,93.70
2017-03-06T06:45:14.379Z,93.40
2017-03-06T06:46:14.906Z,93.43
2017-03-06T06:47:15.444Z,93.32
2017-03-06T06:48:15.970Z,93.37
2017-03-06T06:49:16.650Z,93.35
2017-03-06T06:50:17.032Z,93.10
2017-03-06T06:51:17.572Z,93.24
2017-03-06T06:52:18.100Z,93.51
2017-03-06T06:53:18.640Z,93.40
2017-03-06T06:54:19.176Z,93.43
2017-03-06T06:55:19.716Z,93.35
2017-03-06T06:56:20.249Z,93.51
2017-03-06T06:57:20.793Z,93.32
2017-03-06T06:58:21.317Z,92.84
2017-03-06T06:59:21.859Z,93.08
2017-03-06T07:00:22.390Z,92.95
2017-03-06T07:01:23.069Z,92.76
2017-03-06T07:02:23.455Z,92.91
2017-03-06T07:03:23.984Z,93.08
2017-03-06T07:04:24.517Z,93.05
2017-03-06T07:05:25.049Z,93.18
2017-03-06T07:06:25.578Z,93.24
2017-03-06T07:07:26.108Z,93.35
2017-03-06T07:08:26.645Z,93.51
2017-03-06T07:09:27.170Z,93.70
2017-03-06T07:10:27.701Z,93.67
2017-03-06T07:11:28.247Z,93.70
2017-03-06T07:12:28.763Z,93.81
2017-03-06T07:13:29.298Z,93.91
2017-03-06T07:14:29.825Z,93.94
2017-03-06T07:15:30.355Z,93.83
2017-03-06T07:16:30.894Z,93.75
2017-03-06T07:17:31.420Z,93.24
2017-03-06T07:18:31.960Z,93.24
2017-03-06T07:19:32.493Z,93.37
2017-03-06T07:20:33.020Z,93.13
2017-03-06T07:21:33.558Z,92.84
2017-03-06T07:22:34.101Z,93.05
2017-03-06T07:23:34.638Z,92.89
2017-03-06T07:24:35.167Z,92.97
2017-03-06T07:25:35.843Z,92.84
2017-03-06T07:26:36.231Z,92.14
2017-03-06T07:27:36.769Z,92.22
2017-03-06T07:28:37.295Z,91.79
2017-03-06T07:29:37.819Z,91.97
2017-03-06T07:30:38.352Z,92.19
2017-03-06T07:31:39.033Z,91.65
2017-03-06T07:32:39.420Z,91.38
2017-03-06T07:33:39.958Z,91.55
2017-03-06T07:34:40.502Z,91.20
2017-03-06T07:35:41.028Z,91.55
2017-03-06T07:36:41.562Z,91.82
2017-03-06T07:37:42.099Z,91.86
2017-03-06T07:38:42.633Z,91.71
2017-03-06T07:39:43.173Z,92.03
2017-03-06T07:40:43.696Z,91.65
2017-03-06T07:41:44.224Z,91.92
2017-03-06T07:42:44.762Z,91.38
2017-03-06T07:43:45.294Z,91.79
2017-03-06T07:44:45.835Z,91.52
2017-03-06T07:45:46.363Z,91.49
2017-03-06T07:46:46.892Z,91.68
2017-03-06T07:47:47.426Z,91.52
2017-03-06T07:48:47.961Z,90.85
2017-03-06T07:49:48.525Z,90.31
2017-03-06T07:50:49.023Z,90.45
2017-03-06T07:51:49.555Z,90.93
2017-03-06T07:52:50.090Z,90.61
2017-03-06T07:53:50.618Z,91.38
2017-03-06T07:54:51.154Z,90.61
2017-03-06T07:55:51.687Z,90.50
2017-03-06T07:56:52.219Z,90.58
2017-03-06T07:57:52.750Z,90.26
2017-03-06T07:58:53.307Z,91.22
2017-03-06T07:59:53.824Z,90.02
2017-03-06T08:00:54.353Z,89.91
2017-03-06T08:01:55.031Z,89.70
2017-03-06T08:02:55.415Z,90.53
2017-03-06T08:03:55.943Z,88.17
2017-03-06T08:04:56.477Z,87.48
2017-03-06T08:05:57.018Z,86.63
2017-03-06T08:06:57.541Z,84.81
2017-03-06T08:07:58.100Z,85.80
2017-03-06T08:08:58.597Z,85.61
2017-03-06T08:09:59.134Z,85.32
2017-03-06T08:10:59.661Z,85.83
2017-03-06T08:12:00.201Z,84.95
2017-03-06T08:13:00.733Z,84.05
2017-03-06T08:14:01.257Z,84.20
2017-03-06T08:15:01.797Z,83.62
2017-03-06T08:16:02.333Z,82.48
2017-03-06T08:17:02.872Z,81.58
2017-03-06T08:18:03.410Z,82.98
2017-03-06T08:19:03.938Z,81.84
2017-03-06T08:20:04.466Z,82.82
2017-03-06T08:21:05.001Z,82.77
2017-03-06T08:22:05.529Z,82.37
2017-03-06T08:23:06.062Z,80.49
2017-03-06T08:24:06.600Z,80.13
2017-03-06T08:25:07.130Z,81.10
2017-03-06T08:26:07.694Z,80.33
2017-03-06T08:27:08.195Z,82.14
2017-03-06T08:28:08.873Z,83.01
2017-03-06T08:29:09.261Z,84.23
2017-03-06T08:30:09.789Z,84.50
2017-03-06T08:31:10.322Z,84.34
2017-03-06T08:32:10.856Z,83.75
2017-03-06T08:33:11.389Z,83.25
2017-03-06T08:34:11.922Z,81.42
2017-03-06T08:35:12.455Z,82.03
2017-03-06T08:36:12.989Z,82.75
2017-03-06T08:37:13.515Z,81.63
2017-03-06T08:38:14.047Z,82.80
2017-03-06T08:39:14.582Z,81.92
2017-03-06T08:40:15.261Z,82.98
2017-03-06T08:41:15.648Z,82.27
2017-03-06T08:42:16.182Z,82.29
2017-03-06T08:43:16.718Z,82.75
2017-03-06T08:44:17.256Z,83.04
2017-03-06T08:45:17.779Z,84.02
2017-03-06T08:46:18.311Z,84.31
2017-03-06T08:47:18.841Z,84.95
2017-03-06T08:48:19.376Z,84.20
2017-03-06T08:49:19.907Z,83.51
2017-03-06T08:50:20.434Z,82.14
2017-03-06T08:51:20.970Z,82.96
2017-03-06T08:52:21.503Z,83.40
2017-03-06T08:53:22.040Z,84.39
2017-03-06T08:54:22.569Z,83.78
2017-03-06T08:55:23.103Z,83.62
2017-03-06T08:56:23.668Z,83.51
2017-03-06T08:57:24.183Z,84.05
2017-03-06T08:58:24.716Z,82.98
2017-03-06T08:59:25.255Z,84.17
2017-03-06T09:00:25.781Z,84.17
2017-03-06T09:01:26.314Z,83.17
2017-03-06T09:02:26.845Z,83.12
2017-03-06T09:03:27.378Z,81.60
2017-03-06T09:04:27.909Z,81.58
2017-03-06T09:05:28.442Z,80.41
2017-03-06T09:06:28.969Z,81.10
2017-03-06T09:07:29.504Z,81.82
2017-03-06T09:08:30.032Z,79.89
2017-03-06T09:09:30.566Z,81.10
2017-03-06T09:10:31.095Z,80.10
2017-03-06T09:11:31.630Z,80.84
2017-03-06T09:12:32.157Z,80.79
2017-03-06T09:13:32.695Z,79.89
2017-03-06T09:14:33.224Z,79.86
2017-03-06T09:15:33.768Z,78.91
2017-03-06T09:16:34.290Z,80.41
2017-03-06T09:17:34.826Z,79.91
2017-03-06T09:18:35.362Z,81.68
2017-03-06T09:19:35.887Z,79.89
2017-03-06T09:20:36.442Z,80.63
2017-03-06T09:21:36.953Z,81.37
2017-03-06T09:22:37.481Z,80.73
2017-03-06T09:23:38.015Z,80.76
2017-03-06T09:25:39.081Z,80.02
2017-03-06T09:26:39.617Z,80.21
2017-03-06T09:27:40.146Z,81.16
2017-03-06T09:28:40.677Z,80.76
2017-03-06T09:29:41.207Z,79.60
2017-03-06T09:30:41.744Z,80.87
2017-03-06T09:31:42.277Z,79.57
2017-03-06T09:32:42.803Z,79.23
2017-03-06T09:33:43.340Z,78.94
2017-03-06T09:34:43.876Z,78.36
2017-03-06T09:35:44.415Z,78.17
2017-03-06T09:36:44.943Z,78.09
2017-03-06T09:37:45.483Z,77.23
2017-03-06T09:38:46.020Z,79.28
2017-03-06T09:39:46.557Z,77.54
2017-03-06T09:40:47.241Z,76.99
2017-03-06T09:41:47.636Z,77.17
2017-03-06T09:42:48.303Z,76.39
2017-03-06T09:43:48.685Z,77.97
2017-03-06T09:44:49.224Z,75.65
2017-03-06T09:45:49.749Z,75.26
2017-03-06T09:46:50.279Z,76.31
2017-03-06T09:47:50.810Z,75.65
2017-03-06T09:48:51.350Z,74.94
2017-03-06T09:49:51.874Z,73.71
2017-03-06T09:50:52.405Z,75.21
2017-03-06T09:51:52.938Z,75.68
2017-03-06T09:52:53.477Z,76.07
2017-03-06T09:53:54.003Z,75.13
2017-03-06T09:54:54.531Z,73.77
2017-03-06T09:55:55.066Z,71.21
2017-03-06T09:56:55.597Z,75.29
2017-03-06T09:57:56.125Z,75.37
2017-03-06T09:58:56.659Z,75.70
2017-03-06T09:59:57.192Z,73.85
2017-03-06T10:00:57.731Z,71.83
2017-03-06T10:01:58.261Z,75.44
2017-03-06T10:02:58.801Z,75.07
2017-03-06T10:03:59.321Z,74.55
2017-03-06T10:04:59.851Z,74.87
2017-03-06T10:06:00.385Z,74.42
2017-03-06T10:07:00.919Z,74.26
2017-03-06T10:08:01.447Z,73.82
2017-03-06T10:09:01.986Z,74.81
2017-03-06T10:10:02.509Z,77.07
2017-03-06T10:11:03.040Z,76.94
2017-03-06T10:12:03.575Z,76.86
2017-03-06T10:13:04.099Z,76.20
2017-03-06T10:14:04.636Z,76.70
2017-03-06T10:15:05.168Z,76.73
2017-03-06T10:16:05.843Z,77.31
2017-03-06T10:17:06.230Z,75.41
2017-03-06T10:18:06.765Z,75.99
2017-03-06T10:19:07.305Z,76.73
2017-03-06T10:20:07.844Z,76.89
2017-03-06T10:21:08.373Z,75.99
2017-03-06T10:22:08.908Z,77.51
2017-03-06T10:23:09.443Z,76.86
2017-03-06T10:24:10.279Z,78.28
2017-03-06T10:25:10.519Z,77.51
2017-03-06T10:26:11.047Z,78.17
2017-03-06T10:27:11.575Z,77.47
2017-03-06T10:28:12.252Z,77.20
2017-03-06T10:29:12.635Z,77.36
2017-03-06T10:30:13.171Z,77.17
2017-03-06T10:31:13.703Z,75.62
2017-03-06T10:32:14.236Z,75.60
2017-03-06T10:33:14.775Z,76.10
2017-03-06T10:34:15.298Z,75.81
2017-03-06T10:35:15.830Z,76.99
2017-03-06T10:36:16.360Z,77.83
2017-03-06T10:37:16.895Z,77.07
2017-03-06T10:38:17.425Z,77.23
2017-03-06T10:39:17.952Z,78.54
2017-03-06T10:40:18.491Z,77.91
2017-03-06T10:41:19.017Z,77.28
2017-03-06T10:42:19.554Z,77.39
2017-03-06T10:43:20.083Z,76.07
2017-03-06T10:44:20.617Z,76.02
2017-03-06T10:45:21.140Z,77.47
2017-03-06T10:46:21.678Z,77.67
2017-03-06T10:47:22.209Z,75.68
2017-03-06T10:48:22.743Z,77.91
2017-03-06T10:49:23.276Z,77.75
2017-03-06T10:50:23.807Z,76.99
2017-03-06T10:51:24.336Z,75.15
2017-03-06T10:52:24.867Z,76.26
2017-03-06T10:53:25.404Z,72.85
2017-03-06T10:54:25.931Z,74.63
2017-03-06T10:55:26.457Z,75.34
2017-03-06T10:56:26.996Z,77.33
2017-03-06T10:57:27.539Z,74.16
2017-03-06T10:58:28.059Z,75.34
2017-03-06T10:59:28.588Z,74.32
2017-03-06T11:00:29.126Z,74.40
2017-03-06T11:01:29.665Z,76.12
2017-03-06T11:02:30.200Z,74.29
2017-03-06T11:03:30.728Z,73.97
2017-03-06T11:04:31.265Z,77.07
2017-03-06T11:05:31.797Z,76.02
2017-03-06T11:06:32.326Z,74.99
2017-03-06T11:07:32.859Z,73.55
2017-03-06T11:08:33.391Z,71.73
2017-03-06T11:09:33.933Z,71.39
2017-03-06T11:10:34.459Z,70.32
2017-03-06T11:11:34.987Z,73.27
2017-03-06T11:12:35.517Z,73.55
2017-03-06T11:13:36.050Z,72.53
2017-03-06T11:14:36.582Z,71.07
2017-03-06T11:15:37.113Z,71.91
2017-03-06T11:16:37.646Z,72.90
2017-03-06T11:17:38.175Z,71.26
2017-03-06T11:18:38.719Z,73.06
2017-03-06T11:19:39.252Z,71.28
2017-03-06T11:20:39.774Z,70.35
2017-03-06T11:21:40.460Z,69.67
2017-03-06T11:22:40.864Z,70.35
2017-03-06T11:23:41.377Z,70.74
2017-03-06T11:24:41.910Z,68.76
2017-03-06T11:25:42.436Z,69.23
2017-03-06T11:26:42.970Z,71.86
2017-03-06T11:27:43.655Z,73.32
2017-03-06T11:28:44.040Z,74.36
2017-03-06T11:29:44.572Z,71.96
2017-03-06T11:30:45.113Z,71.83
2017-03-06T11:31:45.646Z,70.87
2017-03-06T11:32:46.167Z,71.49
2017-03-06T11:33:46.698Z,69.80
2017-03-06T11:34:47.228Z,69.80
2017-03-06T11:35:47.757Z,70.87
2017-03-06T11:36:48.288Z,70.50
2017-03-06T11:37:48.818Z,70.01
2017-03-06T11:38:49.352Z,71.94
2017-03-06T11:39:49.888Z,69.07
2017-03-06T11:40:50.424Z,69.02
2017-03-06T11:41:50.961Z,70.76
2017-03-06T11:42:51.498Z,70.04
2017-03-06T11:43:52.027Z,71.60
2017-03-06T11:44:52.558Z,69.85
2017-03-06T11:45:53.090Z,69.67
2017-03-06T11:46:53.633Z,70.97
2017-03-06T11:47:54.175Z,71.34
2017-03-06T11:48:54.697Z,69.15
2017-03-06T11:49:55.238Z,69.98
2017-03-06T11:50:55.763Z,69.49
2017-03-06T11:51:56.297Z,70.09
2017-03-06T11:52:56.821Z,70.17
2017-03-06T11:53:57.361Z,67.88
2017-03-06T11:54:57.884Z,67.31
2017-03-06T11:55:58.413Z,68.66
2017-03-06T11:56:58.946Z,69.59
2017-03-06T11:57:59.476Z,72.25
2017-03-06T11:59:00.014Z,67.96
2017-03-06T12:00:00.542Z,69.90
2017-03-06T12:01:01.079Z,69.36
2017-03-06T12:02:01.614Z,70.48
2017-03-06T12:03:02.144Z,69.23
2017-03-06T12:04:02.670Z,69.44
2017-03-06T12:05:03.209Z,69.38
2017-03-06T12:06:03.737Z,69.93
2017-03-06T12:07:04.272Z,69.54
2017-03-06T12:08:04.808Z,69.85
2017-03-06T12:09:05.333Z,69.72
2017-03-06T12:10:05.864Z,70.66
2017-03-06T12:11:06.401Z,69.67
2017-03-06T12:12:06.932Z,68.58
2017-03-06T12:13:07.473Z,68.66
2017-03-06T12:14:07.997Z,68.19
2017-03-06T12:15:08.534Z,70.35
2017-03-06T12:16:09.065Z,70.92
2017-03-06T12:17:09.598Z,69.93
2017-03-06T12:18:10.128Z,71.00
2017-03-06T12:19:10.664Z,70.92
2017-03-06T12:20:11.191Z,72.83
2017-03-06T12:21:11.725Z,68.27
2017-03-06T12:22:12.269Z,69.02
2017-03-06T12:23:12.793Z,67.28
2017-03-06T12:24:13.328Z,70.29
2017-03-06T12:25:13.860Z,68.94
2017-03-06T12:26:14.389Z,70.37
2017-03-06T12:27:14.923Z,70.50
2017-03-06T12:28:15.452Z,68.16
2017-03-06T12:29:15.992Z,67.93
2017-03-06T12:30:16.520Z,68.19
2017-03-06T12:31:17.201Z,68.29
2017-03-06T12:32:17.588Z,66.53
2017-03-06T12:33:18.116Z,66.92
2017-03-06T12:34:18.655Z,67.62
2017-03-06T12:35:19.180Z,63.41
2017-03-06T12:36:19.860Z,64.72
2017-03-06T12:37:20.241Z,64.31
2017-03-06T12:38:20.773Z,66.35
2017-03-06T12:39:21.299Z,63.38
2017-03-06T12:40:21.832Z,66.66
2017-03-06T12:41:22.367Z,63.28
2017-03-06T12:42:22.899Z,63.35
2017-03-06T12:43:23.434Z,65.50
2017-03-06T12:44:23.968Z,62.94
2017-03-06T12:45:24.497Z,61.63
2017-03-06T12:46:25.027Z,60.68
2017-03-06T12:47:25.572Z,64.23
2017-03-06T12:48:26.090Z,65.62
2017-03-06T12:49:26.623Z,62.35
2017-03-06T12:50:27.148Z,60.58
2017-03-06T12:51:27.686Z,61.61
2017-03-06T12:52:28.218Z,60.86
2017-03-06T12:53:28.752Z,61.27
2017-03-06T12:54:29.284Z,61.17
2017-03-06T12:55:29.816Z,62.53
2017-03-06T12:56:30.345Z,61.22
2017-03-06T12:57:30.878Z,60.07
2017-03-06T12:58:31.412Z,58.33
2017-03-06T12:59:31.957Z,57.23
2017-03-06T13:00:32.486Z,57.00